createdAt,value
2023-02-19T00:03:20.816Z,99520.40
2023-02-19T00:08:23.824Z,99513.80
2023-02-19T00:13:26.806Z,99517.00
2023-02-19T00:18:29.663Z,99513.80
2023-02-19T00:23:32.999Z,99515.80
2023-02-19T00:28:36.881Z,99517.00
2023-02-19T00:33:39.760Z,99525.40
2023-02-19T00:38:44.686Z,99522.60
2023-02-19T00:44:04.967Z,99517.00
2023-02-19T00:49:12.378Z,99510.60
2023-02-19T00:54:17.241Z,99514.20
2023-02-19T00:59:20.466Z,99515.20
2023-02-19T01:04:23.414Z,99523.40
2023-02-19T01:09:26.474Z,99536.60
2023-02-19T01:14:29.428Z,99542.80
2023-02-19T01:19:33.081Z,99537.60
2023-02-19T01:24:35.948Z,99543.40
2023-02-19T01:29:38.936Z,99545.40
2023-02-19T01:34:42.030Z,99541.60
2023-02-19T01:39:44.897Z,99533.00
2023-02-19T01:44:47.794Z,99533.20
2023-02-19T01:49:56.925Z,99540.20
2023-02-19T01:55:04.341Z,99530.40
2023-02-19T02:00:12.434Z,99527.00
2023-02-19T02:05:55.388Z,99535.40
2023-02-19T02:10:58.353Z,99534.80
2023-02-19T02:16:24.139Z,99537.80
2023-02-19T02:22:19.554Z,99530.80
2023-02-19T02:27:35.854Z,99525.40
2023-02-19T02:32:53.712Z,99522.40
2023-02-19T02:38:05.177Z,99530.00
2023-02-19T02:43:08.134Z,99535.60
2023-02-19T02:48:45.835Z,99541.40
2023-02-19T02:54:15.066Z,99540.60
2023-02-19T02:59:26.834Z,99536.80
2023-02-19T03:05:11.793Z,99533.80
2023-02-19T03:10:23.326Z,99535.60
2023-02-19T03:15:59.585Z,99528.60
2023-02-19T03:21:05.009Z,99522.40
2023-02-19T03:26:11.742Z,99513.80
2023-02-19T03:31:23.684Z,99515.60
2023-02-19T03:36:37.111Z,99521.40
2023-02-19T03:42:09.619Z,99520.60
2023-02-19T03:47:29.468Z,99520.80
2023-02-19T03:52:58.657Z,99518.40
2023-02-19T03:58:15.085Z,99517.40
2023-02-19T04:03:34.222Z,99514.40
2023-02-19T04:08:38.953Z,99515.00
2023-02-19T04:13:55.821Z,99508.00
2023-02-19T04:19:10.399Z,99513.20
2023-02-19T04:24:24.726Z,99507.20
2023-02-19T04:29:27.779Z,99499.80
2023-02-19T04:34:30.696Z,99503.80
2023-02-19T04:39:33.918Z,99499.80
2023-02-19T04:44:36.865Z,99500.20
2023-02-19T04:49:39.793Z,99500.80
2023-02-19T04:54:42.729Z,99500.20
2023-02-19T04:59:47.070Z,99495.40
2023-02-19T05:04:50.073Z,99488.80
2023-02-19T05:09:53.063Z,99486.00
2023-02-19T05:14:55.928Z,99483.40
2023-02-19T05:19:58.781Z,99486.80
2023-02-19T05:25:01.786Z,99487.60
2023-02-19T05:30:05.046Z,99492.80
2023-02-19T05:35:08.152Z,99484.00
2023-02-19T05:40:11.197Z,99485.00
2023-02-19T05:45:14.253Z,99489.20
2023-02-19T05:50:17.437Z,99498.00
2023-02-19T05:55:20.368Z,99504.80
2023-02-19T06:00:27.678Z,99499.20
2023-02-19T06:05:30.603Z,99504.20
2023-02-19T06:10:33.698Z,99503.80
2023-02-19T06:15:37.669Z,99508.40
2023-02-19T06:20:40.588Z,99511.40
2023-02-19T06:25:43.525Z,99517.20
2023-02-19T06:30:46.545Z,99523.60
2023-02-19T06:35:49.444Z,99526.00
2023-02-19T06:40:52.348Z,99528.20
2023-02-19T06:45:59.042Z,99529.40
2023-02-19T06:51:02.625Z,99542.20
2023-02-19T06:56:25.541Z,99539.60
2023-02-19T07:01:32.042Z,99543.40
2023-02-19T07:06:36.419Z,99549.40
2023-02-19T07:11:40.405Z,99553.20
2023-02-19T07:16:44.609Z,99557.00
2023-02-19T07:21:47.604Z,99570.00
2023-02-19T07:26:50.564Z,99579.60
2023-02-19T07:31:53.578Z,99580.20
2023-02-19T07:36:56.562Z,99581.00
2023-02-19T07:41:59.579Z,99589.80
2023-02-19T07:47:02.738Z,99595.80
2023-02-19T07:52:05.827Z,99595.00
2023-02-19T07:57:08.749Z,99597.60
2023-02-19T08:02:41.038Z,99599.20
2023-02-19T08:07:44.181Z,99605.20
2023-02-19T08:13:19.025Z,99607.60
2023-02-19T08:18:27.427Z,99621.00
2023-02-19T08:23:30.518Z,99631.80
2023-02-19T08:28:33.732Z,99633.00
2023-02-19T08:33:37.982Z,99627.80
2023-02-19T08:38:40.841Z,99635.00
2023-02-19T08:43:44.575Z,99636.00
2023-02-19T08:48:47.535Z,99644.40
2023-02-19T08:53:50.539Z,99646.00
2023-02-19T08:58:53.431Z,99659.80
2023-02-19T09:03:56.547Z,99662.80
2023-02-19T09:08:59.537Z,99666.00
2023-02-19T09:14:02.662Z,99673.60
2023-02-19T09:19:05.657Z,99666.80
2023-02-19T09:24:10.479Z,99668.60
2023-02-19T09:29:13.400Z,99672.40
2023-02-19T09:34:16.514Z,99674.40
2023-02-19T09:39:20.669Z,99673.40
2023-02-19T09:44:35.416Z,99679.60
2023-02-19T09:49:50.207Z,99682.80
2023-02-19T09:54:57.851Z,99686.40
2023-02-19T10:00:13.824Z,99690.80
2023-02-19T10:05:17.385Z,99692.20
2023-02-19T10:10:27.691Z,99692.40
2023-02-19T10:15:41.352Z,99699.00
2023-02-19T10:20:45.449Z,99688.00
2023-02-19T10:25:57.223Z,99708.20
2023-02-19T10:31:04.759Z,99706.40
2023-02-19T10:36:31.742Z,99707.00
2023-02-19T10:41:44.128Z,99708.40
2023-02-19T10:46:52.827Z,99715.80
2023-02-19T10:52:03.410Z,99707.00
2023-02-19T10:57:15.480Z,99705.80
2023-02-19T11:02:21.853Z,99704.80
2023-02-19T11:07:25.080Z,99707.80
2023-02-19T11:12:34.476Z,99702.00
2023-02-19T11:17:37.520Z,99714.80
2023-02-19T11:22:47.177Z,99727.00
2023-02-19T11:28:24.007Z,99733.20
2023-02-19T11:33:28.749Z,99740.20
2023-02-19T11:38:45.730Z,99743.40
2023-02-19T11:44:06.286Z,99740.00
2023-02-19T11:49:20.275Z,99758.00
2023-02-19T11:54:51.183Z,99756.20
2023-02-19T12:00:30.265Z,99760.20
2023-02-19T12:05:56.886Z,99766.60
2023-02-19T12:11:59.823Z,99765.00
2023-02-19T12:17:17.846Z,99768.40
2023-02-19T12:22:57.187Z,99770.40
2023-02-19T12:28:50.572Z,99782.40
2023-02-19T12:34:18.733Z,99775.60
2023-02-19T12:40:16.723Z,99787.40
2023-02-19T12:45:55.828Z,99794.00
2023-02-19T12:51:14.616Z,99792.60
2023-02-19T12:56:26.595Z,99800.00
2023-02-19T13:01:47.748Z,99808.60
2023-02-19T13:07:01.724Z,99806.00
2023-02-19T13:12:15.159Z,99817.40
2023-02-19T13:17:42.891Z,99817.80
2023-02-19T13:23:32.269Z,99837.80
2023-02-19T13:29:34.428Z,99835.80
2023-02-19T13:35:06.886Z,99845.80
2023-02-19T13:40:39.354Z,99840.40
2023-02-19T13:45:46.183Z,99835.00
2023-02-19T13:50:50.631Z,99842.00
2023-02-19T13:55:54.003Z,99842.40
2023-02-19T14:00:57.021Z,99846.80
2023-02-19T14:06:08.271Z,99855.00
2023-02-19T14:11:14.624Z,99865.60
2023-02-19T14:16:37.937Z,99864.20
2023-02-19T14:21:43.509Z,99874.80
2023-02-19T14:26:46.609Z,99880.60
2023-02-19T14:31:49.781Z,99877.20
2023-02-19T14:37:07.868Z,99886.60
2023-02-19T14:42:32.902Z,99889.20
2023-02-19T14:47:37.628Z,99897.40
2023-02-19T14:52:50.159Z,99904.40
2023-02-19T14:57:57.113Z,99900.60
2023-02-19T15:03:00.360Z,99919.00
2023-02-19T15:08:32.739Z,99930.80
2023-02-19T15:13:36.429Z,99928.80
2023-02-19T15:18:39.593Z,99932.60
2023-02-19T15:23:43.409Z,99940.20
2023-02-19T15:28:46.368Z,99944.60
2023-02-19T15:33:52.475Z,99957.80
2023-02-19T15:39:00.183Z,99968.60
2023-02-19T15:44:29.042Z,99978.00
2023-02-19T15:50:06.726Z,99985.20
2023-02-19T15:55:09.639Z,100002.20
2023-02-19T16:00:35.001Z,100008.80
2023-02-19T16:05:40.112Z,100021.00
2023-02-19T16:10:56.082Z,100024.40
2023-02-19T16:16:30.641Z,100019.80
2023-02-19T16:21:34.200Z,100026.00
2023-02-19T16:26:45.672Z,100036.20
2023-02-19T16:31:56.001Z,100047.60
2023-02-19T16:36:59.036Z,100059.00
2023-02-19T16:42:02.458Z,100058.40
2023-02-19T16:47:15.541Z,100065.60
2023-02-19T16:52:18.674Z,100062.80
2023-02-19T16:57:22.015Z,100072.00
2023-02-19T17:02:26.052Z,100088.00
2023-02-19T17:07:29.149Z,100087.00
2023-02-19T17:12:32.153Z,100098.00
2023-02-19T17:17:35.371Z,100113.60
2023-02-19T17:22:38.465Z,100122.60
2023-02-19T17:27:42.024Z,100132.20
2023-02-19T17:32:45.077Z,100122.00
2023-02-19T17:37:48.156Z,100129.20
2023-02-19T17:42:51.250Z,100126.40
2023-02-19T17:47:54.546Z,100118.20
2023-02-19T17:52:58.987Z,100123.40
2023-02-19T17:58:01.988Z,100125.80
2023-02-19T18:03:07.380Z,100122.40
2023-02-19T18:08:10.668Z,100129.60
2023-02-19T18:13:13.644Z,100137.40
2023-02-19T18:18:16.718Z,100141.20
2023-02-19T18:23:20.885Z,100140.60
2023-02-19T18:28:23.897Z,100145.20
2023-02-19T18:33:26.843Z,100144.60
2023-02-19T18:38:29.955Z,100147.40
2023-02-19T18:43:32.944Z,100150.40
2023-02-19T18:48:36.036Z,100152.60
2023-02-19T18:53:39.215Z,100150.40
2023-02-19T18:58:42.265Z,100162.00
2023-02-19T19:03:45.231Z,100163.80
2023-02-19T19:08:48.387Z,100176.60
2023-02-19T19:13:52.818Z,100176.20
2023-02-19T19:18:56.974Z,100163.00
2023-02-19T19:24:00.117Z,100164.80
2023-02-19T19:29:03.282Z,100159.60
2023-02-19T19:34:06.314Z,100151.80
2023-02-19T19:39:09.456Z,100156.20
2023-02-19T19:44:12.748Z,100159.00
2023-02-19T19:49:22.078Z,100168.60
2023-02-19T19:54:25.043Z,100140.40
2023-02-19T19:59:28.393Z,100145.00
2023-02-19T20:04:31.425Z,100144.60
2023-02-19T20:09:34.506Z,100148.80
2023-02-19T20:14:37.441Z,100157.00
2023-02-19T20:19:40.606Z,100164.80
2023-02-19T20:24:43.755Z,100173.00
2023-02-19T20:29:47.543Z,100179.20
2023-02-19T20:34:51.369Z,100179.60
2023-02-19T20:39:54.333Z,100179.20
2023-02-19T20:44:57.486Z,100184.20
2023-02-19T20:50:00.888Z,100193.20
2023-02-19T20:55:05.127Z,100186.80
2023-02-19T21:00:09.671Z,100181.20
2023-02-19T21:05:14.998Z,100186.00
2023-02-19T21:10:20.022Z,100182.00
2023-02-19T21:15:24.889Z,100173.40
2023-02-19T21:20:29.107Z,100181.00
2023-02-19T21:25:34.099Z,100178.60
2023-02-19T21:30:38.163Z,100184.60
2023-02-19T21:35:42.810Z,100189.40
2023-02-19T21:40:52.476Z,100190.20
2023-02-19T21:46:00.356Z,100190.60
2023-02-19T21:51:06.382Z,100192.60
2023-02-19T21:56:11.185Z,100176.00
2023-02-19T22:01:14.554Z,100177.60
2023-02-19T22:06:22.720Z,100174.60
2023-02-19T22:11:26.592Z,100174.60
2023-02-19T22:16:29.833Z,100171.20
2023-02-19T22:21:33.342Z,100169.20
2023-02-19T22:26:36.466Z,100173.60
2023-02-19T22:31:39.531Z,100175.20
2023-02-19T22:36:43.592Z,100166.80
2023-02-19T22:41:47.802Z,100165.20
2023-02-19T22:46:54.210Z,100161.60
2023-02-19T22:52:05.766Z,100163.40
2023-02-19T22:57:08.677Z,100162.00
2023-02-19T23:02:11.716Z,100161.20
2023-02-19T23:07:14.652Z,100153.40
2023-02-19T23:12:18.267Z,100151.80
2023-02-19T23:17:21.149Z,100144.00
2023-02-19T23:22:24.205Z,100145.00
2023-02-19T23:27:28.665Z,100138.80
2023-02-19T23:32:31.616Z,100138.80
2023-02-19T23:37:34.874Z,100125.80
2023-02-19T23:42:37.858Z,100135.40
2023-02-19T23:47:40.800Z,100141.40
2023-02-19T23:52:43.811Z,100137.20
2023-02-19T23:57:46.716Z,100139.80
